This is the latest recevied weather packets stored in our database for station/object OH2HCY. If no packets are shown the sender has not sent any weather packets the latest 10 day(s).
| Time | Temp. | Humidity | Pressure | Rain* | Wind** | Luminosity | Snow |
|---|---|---|---|---|---|---|---|
| 1777719210 | 19.44° C | 39% | 1002 hPa | - | - | - | - |
| 1777718670 | 19.44° C | 40% | 1002.1 hPa | - | - | - | - |
| 1777718151 | 18.89° C | 41% | 1002.3 hPa | - | - | - | - |
| 1777717603 | 18.89° C | 41% | 1002.3 hPa | - | - | - | - |
| 1777717050 | 18.89° C | 41% | 1002.4 hPa | - | - | - | - |
| 1777716490 | 19.44° C | 41% | 1002.4 hPa | - | - | - | - |
| 1777715958 | 18.89° C | 40% | 1002.6 hPa | - | - | - | - |
| 1777715455 | 18.89° C | 41% | 1002.8 hPa | - | - | - | - |
| 1777714935 | 18.89° C | 41% | 1002.7 hPa | - | - | - | - |
| 1777714345 | 18.89° C | 40% | 1002.7 hPa | - | - | - | - |
| 1777713765 | 18.89° C | 41% | 1002.8 hPa | - | - | - | - |
| 1777713225 | 18.89° C | 41% | 1003 hPa | - | - | - | - |
| 1777712690 | 18.89° C | 38% | 1003 hPa | - | - | - | - |
| 1777712155 | 18.89° C | 39% | 1003.4 hPa | - | - | - | - |
| 1777711630 | 18.89° C | 39% | 1003.4 hPa | - | - | - | - |
| 1777711065 | 18.33° C | 39% | 1003.4 hPa | - | - | - | - |
| 1777710510 | 18.33° C | 39% | 1003.4 hPa | - | - | - | - |
| 1777709940 | 18.33° C | 39% | 1003.5 hPa | - | - | - | - |
| 1777709365 | 18.33° C | 38% | 1003.8 hPa | - | - | - | - |
| 1777708820 | 17.78° C | 40% | 1004.2 hPa | - | - | - | - |
| 1777708305 | 17.22° C | 41% | 1004.6 hPa | - | - | - | - |
| 1777707755 | 16.67° C | 42% | 1004.7 hPa | - | - | - | - |
| 1777707239 | 16.11° C | 44% | 1004.9 hPa | - | - | - | - |
| 1777706650 | 15.56° C | 45% | 1005.2 hPa | - | - | - | - |
| 1777706103 | 15° C | 47% | 1005.6 hPa | - | - | - | - |
* Rain since midnight (hover to see other rain measurements)
** Current wind speed in m/s (hover to see current wind gust speed)